sensor_id;sensor_type;location;lat;lon;timestamp;pressure;altitude;pressure_sealevel;temperature;humidity
28432;BME280;15664;51.302;7.744;2023-03-19T00:00:50;82973.94;;;-146.98;86.92
28432;BME280;15664;51.302;7.744;2023-03-19T00:03:15;82984.13;;;-146.98;87.17
28432;BME280;15664;51.302;7.744;2023-03-19T00:05:49;82955.63;;;-146.98;87.50
28432;BME280;15664;51.302;7.744;2023-03-19T00:08:14;82967.84;;;-146.98;87.76
28432;BME280;15664;51.302;7.744;2023-03-19T00:10:40;82973.94;;;-146.98;87.36
28432;BME280;15664;51.302;7.744;2023-03-19T00:13:05;82969.88;;;-146.98;86.86
28432;BME280;15664;51.302;7.744;2023-03-19T00:15:31;82961.72;;;-146.98;86.97
28432;BME280;15664;51.302;7.744;2023-03-19T00:17:56;82955.63;;;-146.98;86.82
28432;BME280;15664;51.302;7.744;2023-03-19T00:20:25;82949.50;;;-146.98;86.73
28432;BME280;15664;51.302;7.744;2023-03-19T00:22:50;82912.84;;;-146.98;86.85
28432;BME280;15664;51.302;7.744;2023-03-19T00:25:15;82973.94;;;-146.98;87.18
28432;BME280;15664;51.302;7.744;2023-03-19T00:27:41;82965.78;;;-146.98;86.60
28432;BME280;15664;51.302;7.744;2023-03-19T00:30:07;82996.34;;;-146.98;86.62
28432;BME280;15664;51.302;7.744;2023-03-19T00:32:33;82947.47;;;-146.98;86.71
28432;BME280;15664;51.302;7.744;2023-03-19T00:34:59;82957.66;;;-146.98;86.60
28432;BME280;15664;51.302;7.744;2023-03-19T00:37:25;82951.53;;;-146.98;86.66
28432;BME280;15664;51.302;7.744;2023-03-19T00:39:50;82943.41;;;-146.98;86.54
28432;BME280;15664;51.302;7.744;2023-03-19T00:42:16;83022.81;;;-146.98;86.79
28432;BME280;15664;51.302;7.744;2023-03-19T00:44:42;82949.50;;;-146.98;86.88
28432;BME280;15664;51.302;7.744;2023-03-19T00:47:08;82961.72;;;-146.98;87.45
28432;BME280;15664;51.302;7.744;2023-03-19T00:49:33;82978.00;;;-146.98;87.38
28432;BME280;15664;51.302;7.744;2023-03-19T00:51:58;82971.91;;;-146.98;87.49
28432;BME280;15664;51.302;7.744;2023-03-19T00:54:24;82965.78;;;-146.98;87.69
28432;BME280;15664;51.302;7.744;2023-03-19T00:56:49;82957.66;;;-146.98;87.41
28432;BME280;15664;51.302;7.744;2023-03-19T00:59:14;82945.44;;;-146.98;87.48
28432;BME280;15664;51.302;7.744;2023-03-19T01:01:40;82957.66;;;-146.98;87.29
28432;BME280;15664;51.302;7.744;2023-03-19T01:04:06;82941.38;;;-146.98;87.29
28432;BME280;15664;51.302;7.744;2023-03-19T01:06:33;82935.25;;;-146.98;86.75
28432;BME280;15664;51.302;7.744;2023-03-19T01:08:58;82933.22;;;-146.98;86.78
28432;BME280;15664;51.302;7.744;2023-03-19T01:11:24;82933.22;;;-146.98;86.31
28432;BME280;15664;51.302;7.744;2023-03-19T01:13:50;82923.03;;;-146.98;86.29
28432;BME280;15664;51.302;7.744;2023-03-19T01:16:15;82949.50;;;-146.98;86.09
28432;BME280;15664;51.302;7.744;2023-03-19T01:18:41;82933.22;;;-146.98;86.09
28432;BME280;15664;51.302;7.744;2023-03-19T01:21:06;82918.97;;;-146.98;86.08
28432;BME280;15664;51.302;7.744;2023-03-19T01:23:37;82939.31;;;-146.98;85.94
28432;BME280;15664;51.302;7.744;2023-03-19T01:26:03;82973.94;;;-146.98;85.46
28432;BME280;15664;51.302;7.744;2023-03-19T01:28:29;82882.31;;;-146.98;85.25
28432;BME280;15664;51.302;7.744;2023-03-19T01:31:05;82892.50;;;-146.98;84.75
28432;BME280;15664;51.302;7.744;2023-03-19T01:33:31;82886.38;;;-146.98;85.08
28432;BME280;15664;51.302;7.744;2023-03-19T01:36:00;82863.97;;;-146.98;85.04
28432;BME280;15664;51.302;7.744;2023-03-19T01:38:55;82884.34;;;-146.98;84.87
28432;BME280;15664;51.302;7.744;2023-03-19T01:41:22;82843.63;;;-146.98;85.10
28432;BME280;15664;51.302;7.744;2023-03-19T01:43:50;82831.41;;;-146.98;84.96
28432;BME280;15664;51.302;7.744;2023-03-19T01:46:38;82831.41;;;-146.98;85.04
28432;BME280;15664;51.302;7.744;2023-03-19T01:49:24;82831.41;;;-146.98;84.92
28432;BME280;15664;51.302;7.744;2023-03-19T01:52:03;82817.16;;;-146.98;85.45
28432;BME280;15664;51.302;7.744;2023-03-19T01:54:36;82900.63;;;-146.98;85.64
28432;BME280;15664;51.302;7.744;2023-03-19T01:57:23;82884.34;;;-146.98;85.83
28432;BME280;15664;51.302;7.744;2023-03-19T02:00:09;82870.09;;;-146.98;87.07
28432;BME280;15664;51.302;7.744;2023-03-19T02:02:49;82892.50;;;-146.98;87.13
28432;BME280;15664;51.302;7.744;2023-03-19T02:05:36;82910.81;;;-146.98;87.44
28432;BME280;15664;51.302;7.744;2023-03-19T02:08:08;82896.56;;;-146.98;87.83
28432;BME280;15664;51.302;7.744;2023-03-19T02:10:35;82921.00;;;-146.98;87.80
28432;BME280;15664;51.302;7.744;2023-03-19T02:13:01;82929.16;;;-146.98;87.74
28432;BME280;15664;51.302;7.744;2023-03-19T02:15:27;82929.16;;;-146.98;87.65
28432;BME280;15664;51.302;7.744;2023-03-19T02:17:52;82933.22;;;-146.98;87.65
28432;BME280;15664;51.302;7.744;2023-03-19T02:20:26;82935.25;;;-146.98;87.63
28432;BME280;15664;51.302;7.744;2023-03-19T02:23:18;82941.38;;;-146.98;87.76
28432;BME280;15664;51.302;7.744;2023-03-19T02:26:01;82929.16;;;-146.98;87.85
28432;BME280;15664;51.302;7.744;2023-03-19T02:28:28;82927.09;;;-146.98;87.85
28432;BME280;15664;51.302;7.744;2023-03-19T02:30:54;82933.22;;;-146.98;87.96
28432;BME280;15664;51.302;7.744;2023-03-19T02:33:20;82933.22;;;-146.98;87.90
28432;BME280;15664;51.302;7.744;2023-03-19T02:35:48;82982.09;;;-146.98;88.24
28432;BME280;15664;51.302;7.744;2023-03-19T02:38:16;82943.41;;;-146.98;88.69
28432;BME280;15664;51.302;7.744;2023-03-19T02:40:59;82947.47;;;-146.98;88.90
28432;BME280;15664;51.302;7.744;2023-03-19T02:43:25;82937.28;;;-146.98;88.93
28432;BME280;15664;51.302;7.744;2023-03-19T02:45:51;82951.53;;;-146.98;88.89
28432;BME280;15664;51.302;7.744;2023-03-19T02:48:17;82925.06;;;-146.98;88.83
28432;BME280;15664;51.302;7.744;2023-03-19T02:50:42;82872.13;;;-146.98;88.87
28432;BME280;15664;51.302;7.744;2023-03-19T02:53:08;82953.56;;;-146.98;88.85
28432;BME280;15664;51.302;7.744;2023-03-19T02:55:35;82886.38;;;-146.98;88.75
28432;BME280;15664;51.302;7.744;2023-03-19T02:58:00;82959.69;;;-146.98;88.65
28432;BME280;15664;51.302;7.744;2023-03-19T03:00:27;82963.75;;;-146.98;88.70
28432;BME280;15664;51.302;7.744;2023-03-19T03:02:53;82947.47;;;-146.98;88.80
28432;BME280;15664;51.302;7.744;2023-03-19T03:05:20;82908.78;;;-146.98;89.04
28432;BME280;15664;51.302;7.744;2023-03-19T03:07:45;82943.41;;;-146.98;89.09
28432;BME280;15664;51.302;7.744;2023-03-19T03:10:11;82929.16;;;-146.98;88.71
28432;BME280;15664;51.302;7.744;2023-03-19T03:12:36;82847.69;;;-146.98;88.73
28432;BME280;15664;51.302;7.744;2023-03-19T03:15:05;83004.50;;;-146.98;88.87
28432;BME280;15664;51.302;7.744;2023-03-19T03:17:30;82951.53;;;-146.98;89.27
28432;BME280;15664;51.302;7.744;2023-03-19T03:19:56;82963.75;;;-146.98;89.46
28432;BME280;15664;51.302;7.744;2023-03-19T03:22:21;82912.84;;;-146.98;89.56
28432;BME280;15664;51.302;7.744;2023-03-19T03:24:47;82986.16;;;-146.98;89.49
28432;BME280;15664;51.302;7.744;2023-03-19T03:27:12;83006.53;;;-146.98;89.78
28432;BME280;15664;51.302;7.744;2023-03-19T03:29:38;83014.66;;;-146.98;90.24
28432;BME280;15664;51.302;7.744;2023-03-19T03:32:05;82984.13;;;-146.98;90.85
28432;BME280;15664;51.302;7.744;2023-03-19T03:34:31;83026.88;;;-146.98;90.92
28432;BME280;15664;51.302;7.744;2023-03-19T03:36:57;83010.59;;;-146.98;91.38
28432;BME280;15664;51.302;7.744;2023-03-19T03:39:23;83022.81;;;-146.98;92.05
28432;BME280;15664;51.302;7.744;2023-03-19T03:41:48;82998.38;;;-146.98;93.12
28432;BME280;15664;51.302;7.744;2023-03-19T03:44:13;83047.25;;;-146.98;93.76
28432;BME280;15664;51.302;7.744;2023-03-19T03:46:40;83071.69;;;-146.98;93.82
28432;BME280;15664;51.302;7.744;2023-03-19T03:49:07;82990.22;;;-146.98;94.28
28432;BME280;15664;51.302;7.744;2023-03-19T03:51:33;83030.97;;;-146.98;94.74
28432;BME280;15664;51.302;7.744;2023-03-19T03:53:58;83063.53;;;-146.98;94.89
28432;BME280;15664;51.302;7.744;2023-03-19T03:56:24;83018.75;;;-146.98;95.15
28432;BME280;15664;51.302;7.744;2023-03-19T03:58:50;83030.97;;;-146.98;95.19
28432;BME280;15664;51.302;7.744;2023-03-19T04:01:16;83051.31;;;-146.98;95.05
28432;BME280;15664;51.302;7.744;2023-03-19T04:03:43;83037.06;;;-146.98;95.28
28432;BME280;15664;51.302;7.744;2023-03-19T04:06:16;83063.53;;;-146.98;95.30
28432;BME280;15664;51.302;7.744;2023-03-19T04:08:44;83033.00;;;-146.98;95.34
28432;BME280;15664;51.302;7.744;2023-03-19T04:11:10;83045.22;;;-146.98;95.57
28432;BME280;15664;51.302;7.744;2023-03-19T04:13:35;83026.88;;;-146.98;95.28
28432;BME280;15664;51.302;7.744;2023-03-19T04:16:06;83030.97;;;-146.98;95.20
28432;BME280;15664;51.302;7.744;2023-03-19T04:18:32;83018.75;;;-146.98;95.60
28432;BME280;15664;51.302;7.744;2023-03-19T04:20:58;83045.22;;;-146.98;95.75
28432;BME280;15664;51.302;7.744;2023-03-19T04:23:24;83004.50;;;-146.98;95.88
28432;BME280;15664;51.302;7.744;2023-03-19T04:25:49;83000.41;;;-146.98;95.80
28432;BME280;15664;51.302;7.744;2023-03-19T04:28:15;82982.09;;;-146.98;95.79
28432;BME280;15664;51.302;7.744;2023-03-19T04:30:41;82982.09;;;-146.98;95.75
28432;BME280;15664;51.302;7.744;2023-03-19T04:33:08;83016.72;;;-146.98;96.09
28432;BME280;15664;51.302;7.744;2023-03-19T04:35:35;82969.88;;;-146.98;95.74
28432;BME280;15664;51.302;7.744;2023-03-19T04:38:00;83041.13;;;-146.98;95.19
28432;BME280;15664;51.302;7.744;2023-03-19T04:40:26;82937.28;;;-146.98;95.14
28432;BME280;15664;51.302;7.744;2023-03-19T04:42:51;82927.09;;;-146.98;94.75
28432;BME280;15664;51.302;7.744;2023-03-19T04:45:29;82941.38;;;-146.98;94.38
28432;BME280;15664;51.302;7.744;2023-03-19T04:47:55;82980.06;;;-146.98;93.88
28432;BME280;15664;51.302;7.744;2023-03-19T04:50:21;82947.47;;;-146.98;93.59
28432;BME280;15664;51.302;7.744;2023-03-19T04:52:46;82929.16;;;-146.98;93.62
28432;BME280;15664;51.302;7.744;2023-03-19T04:55:12;82921.00;;;-146.98;93.50
28432;BME280;15664;51.302;7.744;2023-03-19T04:57:47;82947.47;;;-146.98;93.17
28432;BME280;15664;51.302;7.744;2023-03-19T05:00:12;82959.69;;;-146.98;93.04
28432;BME280;15664;51.302;7.744;2023-03-19T05:02:40;82939.31;;;-146.98;93.24
28432;BME280;15664;51.302;7.744;2023-03-19T05:05:10;82953.56;;;-146.98;93.17
28432;BME280;15664;51.302;7.744;2023-03-19T05:07:38;82945.44;;;-146.98;93.16
28432;BME280;15664;51.302;7.744;2023-03-19T05:10:05;82908.78;;;-146.98;92.88
28432;BME280;15664;51.302;7.744;2023-03-19T05:12:31;82949.50;;;-146.98;92.74
28432;BME280;15664;51.302;7.744;2023-03-19T05:14:57;82945.44;;;-146.98;93.00
28432;BME280;15664;51.302;7.744;2023-03-19T05:17:35;82965.78;;;-146.98;93.11
28432;BME280;15664;51.302;7.744;2023-03-19T05:20:17;82921.00;;;-146.98;92.90
28432;BME280;15664;51.302;7.744;2023-03-19T05:22:51;82945.44;;;-146.98;92.51
28432;BME280;15664;51.302;7.744;2023-03-19T05:25:17;82939.31;;;-146.98;92.06
28432;BME280;15664;51.302;7.744;2023-03-19T05:27:44;82937.28;;;-146.98;91.56
28432;BME280;15664;51.302;7.744;2023-03-19T05:30:15;82945.44;;;-146.98;91.32
28432;BME280;15664;51.302;7.744;2023-03-19T05:33:02;82957.66;;;-146.98;90.61
28432;BME280;15664;51.302;7.744;2023-03-19T05:35:33;82866.03;;;-146.98;89.67
28432;BME280;15664;51.302;7.744;2023-03-19T05:38:00;82941.38;;;-146.98;89.34
28432;BME280;15664;51.302;7.744;2023-03-19T05:40:27;82815.13;;;-146.98;89.25
28432;BME280;15664;51.302;7.744;2023-03-19T05:42:53;82925.06;;;-146.98;89.20
28432;BME280;15664;51.302;7.744;2023-03-19T05:45:22;82910.81;;;-146.98;89.09
28432;BME280;15664;51.302;7.744;2023-03-19T05:47:51;82896.56;;;-146.98;88.29
28432;BME280;15664;51.302;7.744;2023-03-19T05:50:18;82882.31;;;-146.98;88.12
28432;BME280;15664;51.302;7.744;2023-03-19T05:53:03;82933.22;;;-146.98;88.09
28432;BME280;15664;51.302;7.744;2023-03-19T05:55:31;82884.34;;;-146.98;88.02
28432;BME280;15664;51.302;7.744;2023-03-19T05:58:04;82908.78;;;-146.98;88.19
28432;BME280;15664;51.302;7.744;2023-03-19T06:00:29;82888.41;;;-146.98;88.18
28432;BME280;15664;51.302;7.744;2023-03-19T06:02:55;82853.81;;;-146.98;87.90
28432;BME280;15664;51.302;7.744;2023-03-19T06:05:33;82851.75;;;-146.98;87.68
28432;BME280;15664;51.302;7.744;2023-03-19T06:08:12;82851.75;;;-146.98;87.52
28432;BME280;15664;51.302;7.744;2023-03-19T06:10:52;82827.34;;;-146.98;87.71
28432;BME280;15664;51.302;7.744;2023-03-19T06:13:17;82888.41;;;-146.98;87.68
28432;BME280;15664;51.302;7.744;2023-03-19T06:15:52;82849.72;;;-146.98;87.36
28432;BME280;15664;51.302;7.744;2023-03-19T06:18:40;82868.06;;;-146.98;87.37
28432;BME280;15664;51.302;7.744;2023-03-19T06:21:09;82908.78;;;-146.98;87.01
28432;BME280;15664;51.302;7.744;2023-03-19T06:23:34;82908.78;;;-146.98;86.86
28432;BME280;15664;51.302;7.744;2023-03-19T06:26:02;82906.75;;;-146.98;86.77
28432;BME280;15664;51.302;7.744;2023-03-19T06:28:33;82874.16;;;-146.98;86.86
28432;BME280;15664;51.302;7.744;2023-03-19T06:30:59;82863.97;;;-146.98;87.46
28432;BME280;15664;51.302;7.744;2023-03-19T06:33:44;82900.63;;;-146.98;87.61
28432;BME280;15664;51.302;7.744;2023-03-19T06:36:10;82859.91;;;-146.98;87.16
28432;BME280;15664;51.302;7.744;2023-03-19T06:38:36;82884.34;;;-146.98;87.16
28432;BME280;15664;51.302;7.744;2023-03-19T06:41:01;82851.75;;;-146.98;86.83
28432;BME280;15664;51.302;7.744;2023-03-19T06:43:27;82843.63;;;-146.98;85.82
28432;BME280;15664;51.302;7.744;2023-03-19T06:45:53;82861.94;;;-146.98;85.64
28432;BME280;15664;51.302;7.744;2023-03-19T06:48:18;82829.38;;;-146.98;85.59
28432;BME280;15664;51.302;7.744;2023-03-19T06:50:46;82829.38;;;-146.98;86.05
28432;BME280;15664;51.302;7.744;2023-03-19T06:53:13;82831.41;;;-146.98;85.62
28432;BME280;15664;51.302;7.744;2023-03-19T06:55:39;82774.38;;;-146.98;84.86
28432;BME280;15664;51.302;7.744;2023-03-19T06:58:05;82770.31;;;-146.98;83.59
28432;BME280;15664;51.302;7.744;2023-03-19T07:00:32;82766.25;;;-146.98;83.18
28432;BME280;15664;51.302;7.744;2023-03-19T07:02:58;82739.78;;;-146.98;83.09
28432;BME280;15664;51.302;7.744;2023-03-19T07:05:24;82800.84;;;-146.98;83.61
28432;BME280;15664;51.302;7.744;2023-03-19T07:07:50;82780.50;;;-146.98;83.90
28432;BME280;15664;51.302;7.744;2023-03-19T07:10:19;82715.34;;;-146.98;82.07
28432;BME280;15664;51.302;7.744;2023-03-19T07:12:45;82749.94;;;-146.98;80.83
28432;BME280;15664;51.302;7.744;2023-03-19T07:15:10;82680.72;;;-146.98;81.11
28432;BME280;15664;51.302;7.744;2023-03-19T07:17:36;82684.78;;;-146.98;80.67
28432;BME280;15664;51.302;7.744;2023-03-19T07:20:01;82752.00;;;-146.98;81.23
28432;BME280;15664;51.302;7.744;2023-03-19T07:22:27;82749.94;;;-146.98;81.23
28432;BME280;15664;51.302;7.744;2023-03-19T07:24:52;82741.81;;;-146.98;81.10
28432;BME280;15664;51.302;7.744;2023-03-19T07:27:18;82688.88;;;-146.98;81.32
28432;BME280;15664;51.302;7.744;2023-03-19T07:29:43;82729.59;;;-146.98;81.23
28432;BME280;15664;51.302;7.744;2023-03-19T07:32:09;82754.03;;;-146.98;81.37
28432;BME280;15664;51.302;7.744;2023-03-19T07:34:35;82676.66;;;-146.98;81.58
28432;BME280;15664;51.302;7.744;2023-03-19T07:37:01;82705.16;;;-146.98;80.69
28432;BME280;15664;51.302;7.744;2023-03-19T07:39:27;82682.75;;;-146.98;80.95
28432;BME280;15664;51.302;7.744;2023-03-19T07:41:52;82694.97;;;-146.98;80.37
28432;BME280;15664;51.302;7.744;2023-03-19T07:44:20;82721.44;;;-146.98;81.05
28432;BME280;15664;51.302;7.744;2023-03-19T07:46:46;82707.19;;;-146.98;80.98
28432;BME280;15664;51.302;7.744;2023-03-19T07:49:11;82701.09;;;-146.98;81.53
28432;BME280;15664;51.302;7.744;2023-03-19T07:51:37;82656.28;;;-146.98;81.34
28432;BME280;15664;51.302;7.744;2023-03-19T07:54:02;82623.72;;;-146.98;79.90
28432;BME280;15664;51.302;7.744;2023-03-19T07:56:27;82556.53;;;-146.98;76.73
28432;BME280;15664;51.302;7.744;2023-03-19T07:58:53;82485.25;;;-146.98;75.95
28432;BME280;15664;51.302;7.744;2023-03-19T08:01:18;82475.06;;;-146.98;73.87
28432;BME280;15664;51.302;7.744;2023-03-19T08:03:44;82430.28;;;-146.98;71.92
28432;BME280;15664;51.302;7.744;2023-03-19T08:06:10;82397.69;;;-146.98;70.96
28432;BME280;15664;51.302;7.744;2023-03-19T08:08:35;82424.16;;;-146.98;70.60
28432;BME280;15664;51.302;7.744;2023-03-19T08:11:02;82424.16;;;-146.98;70.06
28432;BME280;15664;51.302;7.744;2023-03-19T08:13:28;82489.31;;;-146.98;72.15
28432;BME280;15664;51.302;7.744;2023-03-19T08:15:53;82462.84;;;-146.98;73.12
28432;BME280;15664;51.302;7.744;2023-03-19T08:18:21;82503.59;;;-146.98;73.22
28432;BME280;15664;51.302;7.744;2023-03-19T08:20:46;82505.63;;;-146.98;74.64
28432;BME280;15664;51.302;7.744;2023-03-19T08:23:12;82525.97;;;-146.98;75.03
28432;BME280;15664;51.302;7.744;2023-03-19T08:25:38;82611.50;;;-146.98;75.99
28432;BME280;15664;51.302;7.744;2023-03-19T08:28:04;82613.53;;;-146.98;76.91
28432;BME280;15664;51.302;7.744;2023-03-19T08:30:30;82560.59;;;-146.98;77.03
28432;BME280;15664;51.302;7.744;2023-03-19T08:32:56;82583.00;;;-146.98;76.53
28432;BME280;15664;51.302;7.744;2023-03-19T08:35:23;82625.75;;;-146.98;77.47
28432;BME280;15664;51.302;7.744;2023-03-19T08:37:51;82637.97;;;-146.98;78.07
28432;BME280;15664;51.302;7.744;2023-03-19T08:40:17;82633.88;;;-146.98;78.66
28432;BME280;15664;51.302;7.744;2023-03-19T08:42:43;82660.34;;;-146.98;79.78
28432;BME280;15664;51.302;7.744;2023-03-19T08:45:09;82678.69;;;-146.98;81.18
28432;BME280;15664;51.302;7.744;2023-03-19T08:47:35;82668.50;;;-146.98;83.79
28432;BME280;15664;51.302;7.744;2023-03-19T08:50:00;82731.63;;;-146.98;85.10
28432;BME280;15664;51.302;7.744;2023-03-19T08:52:26;82666.47;;;-146.98;86.07
28432;BME280;15664;51.302;7.744;2023-03-19T08:54:52;82719.41;;;-146.98;86.81
28432;BME280;15664;51.302;7.744;2023-03-19T08:57:17;82739.78;;;-146.98;88.75
28432;BME280;15664;51.302;7.744;2023-03-19T08:59:43;82715.34;;;-146.98;87.13
28432;BME280;15664;51.302;7.744;2023-03-19T09:02:11;82713.31;;;-146.98;86.85
28432;BME280;15664;51.302;7.744;2023-03-19T09:04:39;82644.06;;;-146.98;87.55
28432;BME280;15664;51.302;7.744;2023-03-19T09:07:05;82589.09;;;-146.98;82.87
28432;BME280;15664;51.302;7.744;2023-03-19T09:09:31;82521.91;;;-146.98;80.78
28432;BME280;15664;51.302;7.744;2023-03-19T09:11:56;82509.69;;;-146.98;78.78
28432;BME280;15664;51.302;7.744;2023-03-19T09:14:22;82481.19;;;-146.98;75.94
28432;BME280;15664;51.302;7.744;2023-03-19T09:16:47;82493.41;;;-146.98;77.10
28432;BME280;15664;51.302;7.744;2023-03-19T09:19:13;82438.44;;;-146.98;79.00
28432;BME280;15664;51.302;7.744;2023-03-19T09:21:39;82440.47;;;-146.98;76.05
28432;BME280;15664;51.302;7.744;2023-03-19T09:24:05;82460.81;;;-146.98;74.57
28432;BME280;15664;51.302;7.744;2023-03-19T09:26:31;82422.13;;;-146.98;73.83
28432;BME280;15664;51.302;7.744;2023-03-19T09:28:57;82407.88;;;-146.98;74.07
28432;BME280;15664;51.302;7.744;2023-03-19T09:31:23;82481.19;;;-146.98;76.40
28432;BME280;15664;51.302;7.744;2023-03-19T09:33:49;82511.72;;;-146.98;76.58
28432;BME280;15664;51.302;7.744;2023-03-19T09:36:15;82568.72;;;-146.98;77.71
28432;BME280;15664;51.302;7.744;2023-03-19T09:38:41;82444.53;;;-146.98;77.24
28432;BME280;15664;51.302;7.744;2023-03-19T09:41:34;82456.75;;;-146.98;76.08
28432;BME280;15664;51.302;7.744;2023-03-19T09:44:10;82530.03;;;-146.98;75.03
28432;BME280;15664;51.302;7.744;2023-03-19T09:46:46;82434.34;;;-146.98;75.44
28432;BME280;15664;51.302;7.744;2023-03-19T09:49:26;82401.78;;;-146.98;74.74
28432;BME280;15664;51.302;7.744;2023-03-19T09:54:44;82481.19;;;-146.98;75.84
28432;BME280;15664;51.302;7.744;2023-03-19T09:57:11;82418.06;;;-146.98;76.31
28432;BME280;15664;51.302;7.744;2023-03-19T09:59:59;82383.44;;;-146.98;74.73
28432;BME280;15664;51.302;7.744;2023-03-19T10:02:42;82373.28;;;-146.98;74.37
28432;BME280;15664;51.302;7.744;2023-03-19T10:05:18;82391.59;;;-146.98;73.67
28432;BME280;15664;51.302;7.744;2023-03-19T10:07:54;82483.22;;;-146.98;74.19
28432;BME280;15664;51.302;7.744;2023-03-19T10:10:50;82342.72;;;-146.98;72.89
28432;BME280;15664;51.302;7.744;2023-03-19T10:13:34;82350.88;;;-146.98;73.34
28432;BME280;15664;51.302;7.744;2023-03-19T10:16:04;82330.50;;;-146.98;71.56
28432;BME280;15664;51.302;7.744;2023-03-19T10:18:35;82302.00;;;-146.98;69.90
28432;BME280;15664;51.302;7.744;2023-03-19T10:21:14;82257.22;;;-146.98;68.38
28432;BME280;15664;51.302;7.744;2023-03-19T10:23:59;82192.06;;;-146.98;67.98
28432;BME280;15664;51.302;7.744;2023-03-19T10:26:32;82220.56;;;-146.98;67.75
28432;BME280;15664;51.302;7.744;2023-03-19T10:29:21;82289.78;;;-146.98;68.89
28432;BME280;15664;51.302;7.744;2023-03-19T10:31:57;82289.78;;;-146.98;69.76
28432;BME280;15664;51.302;7.744;2023-03-19T10:34:36;82381.41;;;-146.98;71.34
28432;BME280;15664;51.302;7.744;2023-03-19T10:37:05;82348.84;;;-146.98;71.16
28432;BME280;15664;51.302;7.744;2023-03-19T10:39:34;82308.13;;;-146.98;71.19
28432;BME280;15664;51.302;7.744;2023-03-19T10:45:13;82253.16;;;-146.98;68.53
28432;BME280;15664;51.302;7.744;2023-03-19T10:47:43;82297.94;;;-146.98;69.29
28432;BME280;15664;51.302;7.744;2023-03-19T10:50:42;82249.06;;;-146.98;68.29
28432;BME280;15664;51.302;7.744;2023-03-19T10:58:19;82265.38;;;-146.98;69.22
28432;BME280;15664;51.302;7.744;2023-03-19T11:00:49;82310.16;;;-146.98;68.61
28432;BME280;15664;51.302;7.744;2023-03-19T11:03:48;82302.00;;;-146.98;68.33
28432;BME280;15664;51.302;7.744;2023-03-19T11:06:20;82310.16;;;-146.98;66.56
28432;BME280;15664;51.302;7.744;2023-03-19T11:08:55;82275.53;;;-146.98;66.79
28432;BME280;15664;51.302;7.744;2023-03-19T11:14:21;82297.94;;;-146.98;67.94
28432;BME280;15664;51.302;7.744;2023-03-19T11:19:54;82183.94;;;-146.98;66.33
28432;BME280;15664;51.302;7.744;2023-03-19T11:22:24;82281.66;;;-146.98;67.22
28432;BME280;15664;51.302;7.744;2023-03-19T11:24:51;82242.97;;;-146.98;67.00
28432;BME280;15664;51.302;7.744;2023-03-19T11:27:18;82200.22;;;-146.98;65.46
28432;BME280;15664;51.302;7.744;2023-03-19T11:29:44;82200.22;;;-146.98;65.08
28432;BME280;15664;51.302;7.744;2023-03-19T11:32:20;82120.81;;;-146.98;62.69
28432;BME280;15664;51.302;7.744;2023-03-19T11:35:03;82094.34;;;-146.98;61.43
28432;BME280;15664;51.302;7.744;2023-03-19T11:40:33;82220.56;;;-146.98;62.82
28432;BME280;15664;51.302;7.744;2023-03-19T11:43:29;82192.06;;;-146.98;63.16
28432;BME280;15664;51.302;7.744;2023-03-19T11:46:09;82216.50;;;-146.98;63.40
28432;BME280;15664;51.302;7.744;2023-03-19T11:49:03;82312.19;;;-146.98;64.14
28432;BME280;15664;51.302;7.744;2023-03-19T11:51:45;82236.84;;;-146.98;63.76
28432;BME280;15664;51.302;7.744;2023-03-19T11:54:21;82224.66;;;-146.98;65.36
28432;BME280;15664;51.302;7.744;2023-03-19T11:56:49;82287.75;;;-146.98;66.60
28432;BME280;15664;51.302;7.744;2023-03-19T12:05:02;82222.59;;;-146.98;66.35
28432;BME280;15664;51.302;7.744;2023-03-19T12:10:28;82220.56;;;-146.98;66.09
28432;BME280;15664;51.302;7.744;2023-03-19T12:13:09;82177.81;;;-146.98;64.56
28432;BME280;15664;51.302;7.744;2023-03-19T12:21:06;82147.28;;;-146.98;63.96
28432;BME280;15664;51.302;7.744;2023-03-19T12:23:44;82194.09;;;-146.98;64.26
28432;BME280;15664;51.302;7.744;2023-03-19T12:26:34;82169.69;;;-146.98;63.15
28432;BME280;15664;51.302;7.744;2023-03-19T12:29:21;82078.06;;;-146.98;61.01
28432;BME280;15664;51.302;7.744;2023-03-19T12:34:44;82045.50;;;-146.98;58.94
28432;BME280;15664;51.302;7.744;2023-03-19T12:37:17;82061.78;;;-146.98;58.25
28432;BME280;15664;51.302;7.744;2023-03-19T12:39:55;81978.31;;;-146.98;58.27
28432;BME280;15664;51.302;7.744;2023-03-19T12:42:27;82002.72;;;-146.98;59.33
28432;BME280;15664;51.302;7.744;2023-03-19T12:44:55;82086.19;;;-146.98;60.79
28432;BME280;15664;51.302;7.744;2023-03-19T12:47:32;82055.66;;;-146.98;60.02
28432;BME280;15664;51.302;7.744;2023-03-19T12:50:07;81980.34;;;-146.98;58.69
28432;BME280;15664;51.302;7.744;2023-03-19T12:52:37;81915.19;;;-146.98;57.67
28432;BME280;15664;51.302;7.744;2023-03-19T12:57:55;81988.47;;;-146.98;58.96
28432;BME280;15664;51.302;7.744;2023-03-19T13:03:47;81788.97;;;-146.98;54.41
28432;BME280;15664;51.302;7.744;2023-03-19T13:06:22;81823.59;;;-146.98;53.39
28432;BME280;15664;51.302;7.744;2023-03-19T13:08:55;81876.50;;;-146.98;53.37
28432;BME280;15664;51.302;7.744;2023-03-19T13:17:28;81801.19;;;-146.98;52.65
28432;BME280;15664;51.302;7.744;2023-03-19T13:19:57;81788.97;;;-146.98;52.36
28432;BME280;15664;51.302;7.744;2023-03-19T13:22:33;81695.34;;;-146.98;49.66
28432;BME280;15664;51.302;7.744;2023-03-19T13:25:02;81473.44;;;-146.98;47.01
28432;BME280;15664;51.302;7.744;2023-03-19T13:27:32;81202.72;;;-146.98;43.80
28432;BME280;15664;51.302;7.744;2023-03-19T13:32:47;81412.38;;;-146.98;44.52
28432;BME280;15664;51.302;7.744;2023-03-19T13:35:26;81438.84;;;-146.98;46.15
28432;BME280;15664;51.302;7.744;2023-03-19T13:38:02;81451.06;;;-146.98;45.52
28432;BME280;15664;51.302;7.744;2023-03-19T13:40:40;81636.31;;;-146.98;46.82
28432;BME280;15664;51.302;7.744;2023-03-19T13:46:25;81833.75;;;-146.98;51.62
28432;BME280;15664;51.302;7.744;2023-03-19T13:48:51;82045.50;;;-146.98;53.43